sensor_id;sensor_type;location;lat;lon;timestamp;temperature;humidity
5960;DHT22;3006;50.956;7.002;2022-08-16T00:02:20;22.40;96.20
5960;DHT22;3006;50.956;7.002;2022-08-16T00:04:49;22.40;96.30
5960;DHT22;3006;50.956;7.002;2022-08-16T00:07:18;22.40;96.30
5960;DHT22;3006;50.956;7.002;2022-08-16T00:09:46;22.30;96.40
5960;DHT22;3006;50.956;7.002;2022-08-16T00:12:19;22.30;96.40
5960;DHT22;3006;50.956;7.002;2022-08-16T00:14:49;22.30;96.50
5960;DHT22;3006;50.956;7.002;2022-08-16T00:17:23;22.30;96.60
5960;DHT22;3006;50.956;7.002;2022-08-16T00:19:53;22.30;96.70
5960;DHT22;3006;50.956;7.002;2022-08-16T00:22:23;22.20;96.80
5960;DHT22;3006;50.956;7.002;2022-08-16T00:24:53;22.20;97.00
5960;DHT22;3006;50.956;7.002;2022-08-16T00:27:23;22.30;96.90
5960;DHT22;3006;50.956;7.002;2022-08-16T00:29:56;22.40;97.00
5960;DHT22;3006;50.956;7.002;2022-08-16T00:32:34;22.30;96.80
5960;DHT22;3006;50.956;7.002;2022-08-16T00:35:05;22.30;96.80
5960;DHT22;3006;50.956;7.002;2022-08-16T00:37:42;22.20;96.90
5960;DHT22;3006;50.956;7.002;2022-08-16T00:40:27;22.20;97.10
5960;DHT22;3006;50.956;7.002;2022-08-16T00:43:07;22.20;97.30
5960;DHT22;3006;50.956;7.002;2022-08-16T00:45:47;22.10;97.20
5960;DHT22;3006;50.956;7.002;2022-08-16T00:48:27;22.10;97.40
5960;DHT22;3006;50.956;7.002;2022-08-16T00:51:10;22.20;97.40
5960;DHT22;3006;50.956;7.002;2022-08-16T00:53:43;22.20;97.30
5960;DHT22;3006;50.956;7.002;2022-08-16T00:56:15;22.10;97.30
5960;DHT22;3006;50.956;7.002;2022-08-16T00:59:09;22.10;97.40
5960;DHT22;3006;50.956;7.002;2022-08-16T01:01:41;22.10;97.40
5960;DHT22;3006;50.956;7.002;2022-08-16T01:04:12;22.10;97.40
5960;DHT22;3006;50.956;7.002;2022-08-16T01:06:57;22.00;97.50
5960;DHT22;3006;50.956;7.002;2022-08-16T01:09:28;22.00;97.50
5960;DHT22;3006;50.956;7.002;2022-08-16T01:12:01;22.00;97.70
5960;DHT22;3006;50.956;7.002;2022-08-16T01:14:38;21.90;97.80
5960;DHT22;3006;50.956;7.002;2022-08-16T01:17:10;21.90;97.80
5960;DHT22;3006;50.956;7.002;2022-08-16T01:19:43;21.90;97.80
5960;DHT22;3006;50.956;7.002;2022-08-16T01:22:17;21.90;97.90
5960;DHT22;3006;50.956;7.002;2022-08-16T01:25:12;21.90;97.80
5960;DHT22;3006;50.956;7.002;2022-08-16T01:27:44;21.90;98.20
5960;DHT22;3006;50.956;7.002;2022-08-16T01:30:16;21.90;98.10
5960;DHT22;3006;50.956;7.002;2022-08-16T01:32:55;21.90;98.00
5960;DHT22;3006;50.956;7.002;2022-08-16T01:35:43;21.80;98.00
5960;DHT22;3006;50.956;7.002;2022-08-16T01:38:21;21.80;98.20
5960;DHT22;3006;50.956;7.002;2022-08-16T01:40:59;21.70;98.20
5960;DHT22;3006;50.956;7.002;2022-08-16T01:43:32;21.70;98.30
5960;DHT22;3006;50.956;7.002;2022-08-16T01:46:05;21.70;98.30
5960;DHT22;3006;50.956;7.002;2022-08-16T01:48:55;21.70;98.30
5960;DHT22;3006;50.956;7.002;2022-08-16T01:51:25;21.70;98.30
5960;DHT22;3006;50.956;7.002;2022-08-16T01:53:56;21.70;98.20
5960;DHT22;3006;50.956;7.002;2022-08-16T01:56:28;21.80;98.30
5960;DHT22;3006;50.956;7.002;2022-08-16T01:58:59;21.70;98.30
5960;DHT22;3006;50.956;7.002;2022-08-16T02:01:30;21.70;98.30
5960;DHT22;3006;50.956;7.002;2022-08-16T02:04:00;21.70;98.40
5960;DHT22;3006;50.956;7.002;2022-08-16T02:06:40;21.70;98.50
5960;DHT22;3006;50.956;7.002;2022-08-16T02:09:16;21.60;98.50
5960;DHT22;3006;50.956;7.002;2022-08-16T02:11:50;21.60;98.60
5960;DHT22;3006;50.956;7.002;2022-08-16T02:14:21;21.60;98.60
5960;DHT22;3006;50.956;7.002;2022-08-16T02:16:54;21.60;98.70
5960;DHT22;3006;50.956;7.002;2022-08-16T02:19:23;21.60;98.80
5960;DHT22;3006;50.956;7.002;2022-08-16T02:22:14;21.60;98.70
5960;DHT22;3006;50.956;7.002;2022-08-16T02:25:06;21.60;98.70
5960;DHT22;3006;50.956;7.002;2022-08-16T02:27:38;21.50;98.70
5960;DHT22;3006;50.956;7.002;2022-08-16T02:30:10;21.50;98.70
5960;DHT22;3006;50.956;7.002;2022-08-16T02:33:00;21.50;98.70
5960;DHT22;3006;50.956;7.002;2022-08-16T02:35:29;21.50;98.70
5960;DHT22;3006;50.956;7.002;2022-08-16T02:37:58;21.50;98.80
5960;DHT22;3006;50.956;7.002;2022-08-16T02:40:34;21.50;98.80
5960;DHT22;3006;50.956;7.002;2022-08-16T02:43:05;21.40;98.80
5960;DHT22;3006;50.956;7.002;2022-08-16T02:45:34;21.40;98.90
5960;DHT22;3006;50.956;7.002;2022-08-16T02:48:03;21.40;99.20
5960;DHT22;3006;50.956;7.002;2022-08-16T02:50:52;21.40;99.10
5960;DHT22;3006;50.956;7.002;2022-08-16T02:53:40;21.40;99.00
5960;DHT22;3006;50.956;7.002;2022-08-16T02:56:10;21.40;99.10
5960;DHT22;3006;50.956;7.002;2022-08-16T02:58:42;21.40;99.10
5960;DHT22;3006;50.956;7.002;2022-08-16T03:01:12;21.40;99.20
5960;DHT22;3006;50.956;7.002;2022-08-16T03:04:03;21.40;99.10
5960;DHT22;3006;50.956;7.002;2022-08-16T03:06:51;21.40;99.10
5960;DHT22;3006;50.956;7.002;2022-08-16T03:09:35;21.40;99.40
5960;DHT22;3006;50.956;7.002;2022-08-16T03:12:04;21.30;99.60
5960;DHT22;3006;50.956;7.002;2022-08-16T03:14:35;21.30;99.30
5960;DHT22;3006;50.956;7.002;2022-08-16T03:17:04;21.20;99.30
5960;DHT22;3006;50.956;7.002;2022-08-16T03:19:36;21.20;99.40
